createdAt,value
2017-12-04T14:19:59.407Z,1025.1
2017-12-04T14:21:08.579Z,1025.12
2017-12-04T14:22:18.458Z,1025.16
2017-12-04T14:23:27.167Z,1025.16
2017-12-04T14:24:36.621Z,1025.18
2017-12-04T14:25:45.286Z,1025.16
2017-12-04T14:26:54.451Z,1025.11
2017-12-04T14:28:03.378Z,1025.14
2017-12-04T14:29:12.294Z,1025.1
2017-12-04T14:30:21.493Z,1025.09
2017-12-04T14:31:30.958Z,1025.11
2017-12-04T14:32:39.903Z,1025.15
2017-12-04T14:33:48.888Z,1025.17
2017-12-04T14:34:57.815Z,1025.22
2017-12-04T14:36:06.737Z,1025.27
2017-12-04T14:37:16.210Z,1025.27
2017-12-04T14:38:25.387Z,1025.28
2017-12-04T14:39:34.865Z,1025.3
2017-12-04T14:40:44.055Z,1025.33
2017-12-04T14:41:52.727Z,1025.31
2017-12-04T14:43:01.641Z,1025.39
2017-12-04T14:44:11.065Z,1025.36
2017-12-04T14:45:19.975Z,1025.37
2017-12-04T14:46:28.946Z,1025.36
2017-12-04T14:47:38.378Z,1025.33
2017-12-04T14:48:47.289Z,1025.37
2017-12-04T14:49:56.728Z,1025.37
2017-12-04T14:51:06.171Z,1025.38
2017-12-04T14:52:15.600Z,1025.39
2017-12-04T14:53:24.796Z,1025.41
2017-12-04T14:54:34.017Z,1025.43
2017-12-04T14:55:43.199Z,1025.42
2017-12-04T14:56:52.110Z,1025.49
2017-12-04T14:58:01.558Z,1025.46
2017-12-04T14:59:10.470Z,1025.51
2017-12-04T15:00:19.431Z,1025.49
2017-12-04T15:01:28.344Z,1025.52
2017-12-04T15:02:37.270Z,1025.51
2017-12-04T15:03:46.452Z,1025.52
2017-12-04T15:04:55.648Z,1025.55
2017-12-04T15:06:05.096Z,1025.59
2017-12-04T15:07:14.276Z,1025.53
2017-12-04T15:08:23.458Z,1025.58
2017-12-04T15:09:32.128Z,1025.61
2017-12-04T15:10:41.336Z,1025.62
2017-12-04T15:11:50.802Z,1025.62
2017-12-04T15:12:59.731Z,1025.65
2017-12-04T15:14:09.181Z,1025.67
2017-12-04T15:15:18.350Z,1025.69
2017-12-04T15:16:27.010Z,1025.68
2017-12-04T15:17:36.454Z,1025.71
2017-12-04T15:18:45.629Z,1025.73
2017-12-04T15:19:54.819Z,1025.71
2017-12-04T15:21:03.738Z,1025.73
2017-12-04T15:22:12.936Z,1025.73
2017-12-04T15:23:22.389Z,1025.76
2017-12-04T15:24:31.896Z,1025.75
2017-12-04T15:25:40.554Z,1025.76
2017-12-04T15:26:49.206Z,1025.76
2017-12-04T15:27:58.380Z,1025.76
2017-12-04T15:29:07.334Z,1025.82
2017-12-04T15:30:16.518Z,1025.78
2017-12-04T15:31:25.720Z,1025.81
2017-12-04T15:32:34.625Z,1025.83
2017-12-04T15:33:43.822Z,1025.8
2017-12-04T15:34:52.829Z,1025.81
2017-12-04T15:36:02.293Z,1025.84
2017-12-04T15:37:11.489Z,1025.85
2017-12-04T15:38:20.404Z,1025.89
2017-12-04T15:39:29.591Z,1025.85
2017-12-04T15:40:38.750Z,1025.87
2017-12-04T15:41:47.484Z,1025.88
2017-12-04T15:42:56.421Z,1025.85
2017-12-04T15:44:05.414Z,1025.89
2017-12-04T15:45:14.585Z,1025.87
2017-12-04T15:46:23.235Z,1025.88
2017-12-04T15:47:32.675Z,1025.89
2017-12-04T15:48:41.852Z,1025.91
2017-12-04T15:49:51.030Z,1025.91
2017-12-04T15:50:59.734Z,1025.89
2017-12-04T15:52:08.690Z,1025.89
2017-12-04T15:53:17.641Z,1025.92
2017-12-04T15:54:26.584Z,1025.95
2017-12-04T15:55:36.044Z,1025.89
2017-12-04T15:56:44.999Z,1025.93
2017-12-04T15:57:53.948Z,1025.95
2017-12-04T15:59:02.606Z,1025.95
2017-12-04T16:00:11.544Z,1025.92
2017-12-04T16:01:21.027Z,1025.96
2017-12-04T16:02:30.479Z,1025.93
2017-12-04T16:03:40.189Z,1025.94
2017-12-04T16:04:49.908Z,1025.97
2017-12-04T16:05:58.559Z,1025.92
2017-12-04T16:07:07.757Z,1025.99
2017-12-04T16:08:17.212Z,1026.06
2017-12-04T16:09:26.128Z,1026.07
2017-12-04T16:10:35.306Z,1026.01
2017-12-04T16:11:44.750Z,1026.03
2017-12-04T16:12:53.428Z,1026.04
2017-12-04T16:14:02.353Z,1026.1
2017-12-04T16:15:11.268Z,1026.12
2017-12-04T16:16:20.440Z,1026.12
2017-12-04T16:17:29.141Z,1026.19
2017-12-04T16:18:38.331Z,1026.12
2017-12-04T16:19:47.027Z,1026.17
2017-12-04T16:20:55.694Z,1026.24
2017-12-04T16:22:05.405Z,1026.17
2017-12-04T16:23:14.348Z,1026.18
2017-12-04T16:24:23.281Z,1026.21
2017-12-04T16:25:32.523Z,1026.21
2017-12-04T16:26:41.447Z,1026.22
2017-12-04T16:27:50.657Z,1026.24
2017-12-04T16:28:59.346Z,1026.23
2017-12-04T16:30:08.779Z,1026.24
2017-12-04T16:31:18.232Z,1026.23
2017-12-04T16:32:27.152Z,1026.21
2017-12-04T16:33:36.109Z,1026.15
2017-12-04T16:34:45.541Z,1026.2
2017-12-04T16:35:54.537Z,1026.22
2017-12-04T16:37:03.507Z,1026.22
2017-12-04T16:38:12.428Z,1026.23
2017-12-04T16:39:21.874Z,1026.2
2017-12-04T16:40:30.815Z,1026.28
2017-12-04T16:41:39.475Z,1026.21
2017-12-04T16:42:48.657Z,1026.19
2017-12-04T16:43:57.863Z,1026.27
2017-12-04T16:45:06.775Z,1026.27
2017-12-04T16:46:16.006Z,1026.25
2017-12-04T16:47:24.912Z,1026.35
2017-12-04T16:48:33.604Z,1026.37
2017-12-04T16:49:42.814Z,1026.35
2017-12-04T16:50:52.083Z,1026.4
2017-12-04T16:52:00.763Z,1026.41
2017-12-04T16:53:10.457Z,1026.43
2017-12-04T16:54:19.652Z,1026.39
2017-12-04T16:55:28.850Z,1026.42
2017-12-04T16:56:38.294Z,1026.47
2017-12-04T16:57:47.489Z,1026.46
2017-12-04T16:58:56.181Z,1026.48
2017-12-04T17:00:05.347Z,1026.52
2017-12-04T17:01:14.531Z,1026.54
2017-12-04T17:02:23.481Z,1026.53
2017-12-04T17:03:32.677Z,1026.55
2017-12-04T17:04:41.902Z,1026.56
2017-12-04T17:05:50.855Z,1026.61
2017-12-04T17:07:00.289Z,1026.59
2017-12-04T17:08:09.251Z,1026.62
2017-12-04T17:09:18.472Z,1026.63
2017-12-04T17:10:27.175Z,1026.64
2017-12-04T17:11:36.111Z,1026.66
2017-12-04T17:12:45.054Z,1026.67
2017-12-04T17:13:54.016Z,1026.68
2017-12-04T17:15:02.928Z,1026.72
2017-12-04T17:16:12.116Z,1026.71
2017-12-04T17:17:21.057Z,1026.71
2017-12-04T17:18:29.997Z,1026.75
2017-12-04T17:19:38.929Z,1026.75
2017-12-04T17:20:47.854Z,1026.77
2017-12-04T17:21:56.765Z,1026.8
2017-12-04T17:23:05.951Z,1026.82
2017-12-04T17:24:16.107Z,1026.8
2017-12-04T17:25:25.547Z,1026.8
2017-12-04T17:26:34.732Z,1026.84
2017-12-04T17:27:44.015Z,1026.8
2017-12-04T17:28:53.634Z,1026.83
2017-12-04T17:30:02.808Z,1026.85
2017-12-04T17:31:12.337Z,1026.84
2017-12-04T17:32:21.133Z,1026.88
2017-12-04T17:33:30.578Z,1026.89
2017-12-04T17:34:39.791Z,1026.92
2017-12-04T17:35:49.288Z,1026.93
2017-12-04T17:36:58.999Z,1026.99
2017-12-04T17:38:08.007Z,1026.97
2017-12-04T17:39:18.503Z,1026.96
2017-12-04T17:40:27.703Z,1027.02
2017-12-04T17:41:36.938Z,1026.96
2017-12-04T17:42:45.745Z,1026.94
2017-12-04T17:43:55.195Z,1026.97
2017-12-04T17:45:04.649Z,1027.03
2017-12-04T17:46:13.341Z,1026.99
2017-12-04T17:47:22.027Z,1027.03
2017-12-04T17:48:31.273Z,1027.04
2017-12-04T17:49:39.951Z,1027.03
2017-12-04T17:50:49.128Z,1027.09
2017-12-04T17:51:58.073Z,1027.14
2017-12-04T17:53:06.753Z,1027.15
2017-12-04T17:54:15.953Z,1027.17
2017-12-04T17:55:25.387Z,1027.16
2017-12-04T17:56:34.362Z,1027.19
2017-12-04T17:57:43.270Z,1027.21
2017-12-04T17:58:52.713Z,1027.22
2017-12-04T18:00:01.916Z,1027.25
2017-12-04T18:01:11.392Z,1027.29
2017-12-04T18:02:20.355Z,1027.24
2017-12-04T18:03:29.556Z,1027.28
2017-12-04T18:04:38.828Z,1027.3
2017-12-04T18:05:48.051Z,1027.31
2017-12-04T18:06:57.321Z,1027.23
2017-12-04T18:08:07.063Z,1027.26
2017-12-04T18:09:16.267Z,1027.28
2017-12-04T18:10:25.483Z,1027.31
2017-12-04T18:11:34.934Z,1027.29
2017-12-04T18:12:43.603Z,1027.31
2017-12-04T18:13:52.794Z,1027.31
2017-12-04T18:15:01.720Z,1027.35
2017-12-04T18:16:10.632Z,1027.4
2017-12-04T18:17:20.073Z,1027.45
2017-12-04T18:18:29.014Z,1027.38
2017-12-04T18:19:38.123Z,1027.39
2017-12-04T18:20:47.621Z,1027.4
2017-12-04T18:21:57.582Z,1027.46
2017-12-04T18:23:08.093Z,1027.47
2017-12-04T18:24:17.875Z,1027.49
2017-12-04T18:25:27.052Z,1027.53
2017-12-04T18:26:36.264Z,1027.53
2017-12-04T18:27:45.218Z,1027.53
2017-12-04T18:28:53.975Z,1027.52
2017-12-04T18:30:02.921Z,1027.53
2017-12-04T18:31:12.102Z,1027.52
2017-12-04T18:32:21.062Z,1027.51
2017-12-04T18:33:29.734Z,1027.56
2017-12-04T18:34:38.960Z,1027.57
2017-12-04T18:35:48.652Z,1027.54
2017-12-04T18:36:57.983Z,1027.6
2017-12-04T18:38:07.450Z,1027.61
2017-12-04T18:39:17.413Z,1027.63
2017-12-04T18:40:26.746Z,1027.63
2017-12-04T18:41:36.362Z,1027.66
2017-12-04T18:42:45.121Z,1027.67
2017-12-04T18:43:53.829Z,1027.69
2017-12-04T18:45:02.585Z,1027.64
2017-12-04T18:46:12.270Z,1027.69
2017-12-04T18:47:21.775Z,1027.69
2017-12-04T18:48:30.428Z,1027.7
2017-12-04T18:49:39.356Z,1027.73
2017-12-04T18:50:48.368Z,1027.73
2017-12-04T18:51:57.309Z,1027.75
2017-12-04T18:53:06.289Z,1027.75
2017-12-04T18:54:15.512Z,1027.75
2017-12-04T18:55:24.422Z,1027.74
2017-12-04T18:56:33.660Z,1027.76
2017-12-04T18:57:42.868Z,1027.76
2017-12-04T18:58:52.394Z,1027.71
2017-12-04T19:00:01.349Z,1027.71
2017-12-04T19:01:10.554Z,1027.74
2017-12-04T19:02:20.011Z,1027.74
2017-12-04T19:03:28.983Z,1027.71
2017-12-04T19:04:37.940Z,1027.75
2017-12-04T19:05:46.710Z,1027.76
2017-12-04T19:06:56.600Z,1027.83
2017-12-04T19:08:06.093Z,1027.82
2017-12-04T19:09:14.806Z,1027.82
2017-12-04T19:10:24.003Z,1027.84
2017-12-04T19:11:33.210Z,1027.79
2017-12-04T19:12:42.517Z,1027.82
2017-12-04T19:13:51.434Z,1027.78
2017-12-04T19:15:00.694Z,1027.8
2017-12-04T19:16:09.607Z,1027.85
2017-12-04T19:17:19.058Z,1027.82
2017-12-04T19:18:27.977Z,1027.82
2017-12-04T19:19:37.013Z,1027.81
2017-12-04T19:20:46.614Z,1027.76
2017-12-04T19:21:55.826Z,1027.82
2017-12-04T19:23:05.063Z,1027.85
2017-12-04T19:24:14.025Z,1027.85
2017-12-04T19:25:23.266Z,1027.82
2017-12-04T19:26:32.477Z,1027.83
2017-12-04T19:27:41.738Z,1027.87
2017-12-04T19:28:51.326Z,1027.86
2017-12-04T19:30:00.490Z,1027.92
2017-12-04T19:31:09.408Z,1027.93
2017-12-04T19:32:18.614Z,1027.92
2017-12-04T19:33:28.043Z,1027.95
2017-12-04T19:34:37.544Z,1027.96
2017-12-04T19:35:47.006Z,1027.96
2017-12-04T19:36:55.702Z,1027.97
2017-12-04T19:38:05.157Z,1027.97
2017-12-04T19:39:14.877Z,1027.99
2017-12-04T19:40:24.088Z,1027.99
2017-12-04T19:41:33.260Z,1027.96
2017-12-04T19:42:42.191Z,1028.04
2017-12-04T19:43:50.842Z,1028.03
2017-12-04T19:45:00.022Z,1028.07
2017-12-04T19:46:09.477Z,1028.07
2017-12-04T19:47:18.923Z,1028.06
2017-12-04T19:48:27.846Z,1028.1
2017-12-04T19:49:37.313Z,1028.04
2017-12-04T19:50:46.223Z,1028.04
2017-12-04T19:51:55.402Z,1028.02
2017-12-04T19:53:04.101Z,1027.99
2017-12-04T19:54:13.527Z,1028
2017-12-04T19:55:22.455Z,1028.03
2017-12-04T19:56:31.658Z,1028.04
2017-12-04T19:57:42.392Z,1028.03
2017-12-04T19:58:51.358Z,1028.03
2017-12-04T20:00:00.541Z,1028.06
2017-12-04T20:01:09.985Z,1028.06
2017-12-04T20:02:18.905Z,1028.07
2017-12-04T20:03:27.605Z,1028.08
2017-12-04T20:04:36.822Z,1028.09
2017-12-04T20:05:45.496Z,1028.07
2017-12-04T20:06:54.176Z,1028.15
2017-12-04T20:08:03.393Z,1028.13
2017-12-04T20:09:12.100Z,1028.13
2017-12-04T20:10:21.590Z,1028.14
2017-12-04T20:11:30.771Z,1028.14
2017-12-04T20:12:39.736Z,1028.15
2017-12-04T20:13:48.928Z,1028.2
2017-12-04T20:14:58.383Z,1028.16
2017-12-04T20:16:07.321Z,1028.13
2017-12-04T20:17:16.749Z,1028.17
2017-12-04T20:18:25.665Z,1028.17
2017-12-04T20:19:34.836Z,1028.16
2017-12-04T20:20:43.773Z,1028.16
2017-12-04T20:21:52.937Z,1028.14
2017-12-04T20:23:02.702Z,1028.14
2017-12-04T20:24:11.620Z,1028.14
2017-12-04T20:25:20.789Z,1028.16
2017-12-04T20:26:29.709Z,1028.19
2017-12-04T20:27:38.619Z,1028.19
2017-12-04T20:28:47.556Z,1028.22
2017-12-04T20:29:56.756Z,1028.25
2017-12-04T20:31:05.947Z,1028.25
2017-12-04T20:32:15.163Z,1028.26
2017-12-04T20:33:24.341Z,1028.3
2017-12-04T20:34:33.517Z,1028.31
2017-12-04T20:35:42.978Z,1028.33
2017-12-04T20:36:52.466Z,1028.33
2017-12-04T20:38:01.403Z,1028.34
2017-12-04T20:39:10.627Z,1028.36
2017-12-04T20:40:19.266Z,1028.33
2017-12-04T20:41:28.711Z,1028.37
2017-12-04T20:42:38.240Z,1028.4
2017-12-04T20:43:47.214Z,1028.41
2017-12-04T20:44:56.174Z,1028.39
2017-12-04T20:46:05.356Z,1028.43
2017-12-04T20:47:15.109Z,1028.5
2017-12-04T20:48:24.549Z,1028.48
2017-12-04T20:49:33.762Z,1028.47
2017-12-04T20:50:43.187Z,1028.47
2017-12-04T20:51:52.877Z,1028.49
2017-12-04T20:53:02.137Z,1028.48
2017-12-04T20:54:10.956Z,1028.49
2017-12-04T20:55:21.109Z,1028.48
2017-12-04T20:56:30.278Z,1028.56
2017-12-04T20:57:39.842Z,1028.53
2017-12-04T20:58:49.515Z,1028.58
2017-12-04T20:59:58.771Z,1028.53
2017-12-04T21:01:08.388Z,1028.58
2017-12-04T21:02:17.319Z,1028.55
2017-12-04T21:03:26.173Z,1028.58
2017-12-04T21:04:35.588Z,1028.6
2017-12-04T21:05:45.645Z,1028.61
2017-12-04T21:06:55.435Z,1028.58
2017-12-04T21:08:04.936Z,1028.65
2017-12-04T21:09:13.902Z,1028.6
2017-12-04T21:10:24.709Z,1028.65
2017-12-04T21:11:33.717Z,1028.66
2017-12-04T21:12:43.444Z,1028.63
2017-12-04T21:13:53.157Z,1028.66
2017-12-04T21:15:02.206Z,1028.65
2017-12-04T21:16:10.895Z,1028.65
2017-12-04T21:17:19.817Z,1028.61
2017-12-04T21:18:28.472Z,1028.6
2017-12-04T21:19:37.668Z,1028.64
2017-12-04T21:20:47.138Z,1028.6
2017-12-04T21:21:56.074Z,1028.66
2017-12-04T21:23:05.511Z,1028.65
2017-12-04T21:24:14.428Z,1028.68
2017-12-04T21:25:23.369Z,1028.66
2017-12-04T21:26:32.856Z,1028.72
2017-12-04T21:27:42.277Z,1028.64
2017-12-04T21:28:51.457Z,1028.68
2017-12-04T21:30:00.638Z,1028.73
2017-12-04T21:31:09.585Z,1028.78
2017-12-04T21:32:18.517Z,1028.72
2017-12-04T21:33:27.436Z,1028.78
2017-12-04T21:34:36.935Z,1028.76
2017-12-04T21:35:46.129Z,1028.77
2017-12-04T21:36:54.792Z,1028.76
2017-12-04T21:38:03.707Z,1028.79
2017-12-04T21:39:12.884Z,1028.79
2017-12-04T21:40:22.069Z,1028.86
2017-12-04T21:41:31.519Z,1028.9
2017-12-04T21:42:40.428Z,1028.9
2017-12-04T21:43:50.128Z,1028.86
2017-12-04T21:44:59.046Z,1028.88
2017-12-04T21:46:07.965Z,1028.84
2017-12-04T21:47:16.893Z,1028.89
2017-12-04T21:48:25.809Z,1028.93
2017-12-04T21:49:34.455Z,1028.92
2017-12-04T21:50:43.374Z,1028.95
2017-12-04T21:51:52.290Z,1028.95
2017-12-04T21:53:01.497Z,1029.03
2017-12-04T21:54:10.671Z,1029.04
2017-12-04T21:55:19.309Z,1029.07
2017-12-04T21:56:28.498Z,1029.07
2017-12-04T21:57:37.160Z,1029.05
2017-12-04T21:58:46.316Z,1029.06
2017-12-04T21:59:55.484Z,1029.06
2017-12-04T22:01:04.949Z,1029.08
2017-12-04T22:02:13.902Z,1029.08
2017-12-04T22:03:23.070Z,1029.08
2017-12-04T22:04:31.988Z,1029.09
2017-12-04T22:05:41.153Z,1029.1
2017-12-04T22:06:50.365Z,1029.14
2017-12-04T22:07:59.041Z,1029.09
2017-12-04T22:09:08.489Z,1029.13
2017-12-04T22:10:17.409Z,1029.13
2017-12-04T22:11:26.837Z,1029.13
2017-12-04T22:12:36.013Z,1029.15
2017-12-04T22:13:44.919Z,1029.18
2017-12-04T22:14:53.817Z,1029.17
2017-12-04T22:16:02.988Z,1029.21
2017-12-04T22:17:12.167Z,1029.21
2017-12-04T22:18:21.653Z,1029.27
2017-12-04T22:19:30.822Z,1029.27
2017-12-04T22:20:40.497Z,1029.27
2017-12-04T22:21:49.153Z,1029.29
2017-12-04T22:22:58.347Z,1029.33
2017-12-04T22:24:08.060Z,1029.33
2017-12-04T22:25:17.503Z,1029.39
2017-12-04T22:26:26.425Z,1029.37
2017-12-04T22:27:35.613Z,1029.37
2017-12-04T22:28:44.570Z,1029.39
2017-12-04T22:29:53.745Z,1029.42
2017-12-04T22:31:02.926Z,1029.41
2017-12-04T22:32:11.835Z,1029.43
2017-12-04T22:33:21.011Z,1029.45
2017-12-04T22:34:30.264Z,1029.49
2017-12-04T22:35:38.915Z,1029.46
2017-12-04T22:36:48.100Z,1029.52
2017-12-04T22:37:56.774Z,1029.5
2017-12-04T22:39:06.205Z,1029.47
2017-12-04T22:40:15.376Z,1029.45
2017-12-04T22:41:24.044Z,1029.41
2017-12-04T22:42:32.971Z,1029.4
2017-12-04T22:43:41.883Z,1029.37
2017-12-04T22:44:51.109Z,1029.35
2017-12-04T22:46:00.022Z,1029.36
2017-12-04T22:47:09.197Z,1029.35
2017-12-04T22:48:18.401Z,1029.29
2017-12-04T22:49:27.060Z,1029.33
2017-12-04T22:50:36.511Z,1029.35
2017-12-04T22:51:45.227Z,1029.3
2017-12-04T22:52:54.144Z,1029.3
2017-12-04T22:54:03.315Z,1029.33
2017-12-04T22:55:12.217Z,1029.38
2017-12-04T22:56:21.412Z,1029.44
2017-12-04T22:57:30.066Z,1029.41
2017-12-04T22:58:39.512Z,1029.43
2017-12-04T22:59:48.198Z,1029.39
2017-12-04T23:00:57.655Z,1029.38
2017-12-04T23:02:06.591Z,1029.39
2017-12-04T23:03:16.019Z,1029.4
2017-12-04T23:04:24.941Z,1029.37
2017-12-04T23:05:34.123Z,1029.35
2017-12-04T23:06:43.308Z,1029.42
2017-12-04T23:07:52.742Z,1029.49
2017-12-04T23:09:02.167Z,1029.5
2017-12-04T23:10:11.619Z,1029.49
2017-12-04T23:11:20.793Z,1029.49
2017-12-04T23:12:29.964Z,1029.55
2017-12-04T23:13:39.428Z,1029.55
2017-12-04T23:14:48.673Z,1029.52
2017-12-04T23:15:57.586Z,1029.56
2017-12-04T23:17:06.573Z,1029.53
2017-12-04T23:18:15.217Z,1029.57
2017-12-04T23:19:24.386Z,1029.56
2017-12-04T23:20:33.293Z,1029.5
2017-12-04T23:21:41.948Z,1029.51
2017-12-04T23:22:51.121Z,1029.52
2017-12-04T23:24:00.304Z,1029.53
2017-12-04T23:25:09.217Z,1029.51
2017-12-04T23:26:18.685Z,1029.55
2017-12-04T23:27:27.970Z,1029.53
2017-12-04T23:28:37.441Z,1029.52
2017-12-04T23:29:46.624Z,1029.56
2017-12-04T23:30:55.526Z,1029.56
2017-12-04T23:32:04.465Z,1029.59
2017-12-04T23:33:13.900Z,1029.59
2017-12-04T23:34:22.940Z,1029.58
2017-12-04T23:35:32.853Z,1029.6
2017-12-04T23:36:42.888Z,1029.6
2017-12-04T23:37:52.463Z,1029.61
2017-12-04T23:39:01.634Z,1029.58
2017-12-04T23:40:11.239Z,1029.61
2017-12-04T23:41:21.014Z,1029.62
2017-12-04T23:42:30.285Z,1029.63
2017-12-04T23:43:39.712Z,1029.69
2017-12-04T23:44:48.889Z,1029.68
2017-12-04T23:45:58.064Z,1029.7
2017-12-04T23:47:07.225Z,1029.75
2017-12-04T23:48:16.649Z,1029.7
2017-12-04T23:49:25.810Z,1029.76
2017-12-04T23:50:35.014Z,1029.77
2017-12-04T23:51:43.950Z,1029.77
2017-12-04T23:52:52.860Z,1029.74
2017-12-04T23:54:02.055Z,1029.78
2017-12-04T23:55:11.245Z,1029.78
2017-12-04T23:56:20.428Z,1029.77
2017-12-04T23:57:29.107Z,1029.79
2017-12-04T23:58:38.017Z,1029.75
2017-12-04T23:59:46.933Z,1029.77
